Time;durP1;ratioP1;P1;durP2;ratioP2;P2;SDS_P1;SDS_P2;PMS_P1;PMS_P2;Temp;Humidity;BMP_temperature;BMP_pressure;BME280_temperature;BME280_humidity;BME280_pressure;Samples;Min_cycle;Max_cycle;Signal;HPM_P1;HPM_P2
2023/11/23 00:02:58;;;;;;;3.10;1.10;;;;;;;;;;5091745;28;20048;-68
2023/11/23 00:06:02;;;;;;;2.72;1.20;;;;;;;;;;5091572;28;20373;-69
2023/11/23 00:09:09;;;;;;;3.25;1.10;;;;;;;;;;5091600;28;20048;-69
2023/11/23 00:12:13;;;;;;;4.78;1.25;;;;;;;;;;5091795;28;20036;-68
2023/11/23 00:15:17;;;;;;;4.00;1.50;;;;;;;;;;5091742;28;20039;-68
2023/11/23 00:18:21;;;;;;;2.90;1.15;;;;;;;;;;5078742;28;20031;-69
2023/11/23 00:21:26;;;;;;;3.30;1.15;;;;;;;;;;5091444;28;20036;-70
2023/11/23 00:24:31;;;;;;;3.58;1.30;;;;;;;;;;5091738;28;20036;-69
2023/11/23 00:27:35;;;;;;;2.72;1.05;;;;;;;;;;5091385;28;20032;-69
2023/11/23 00:30:39;;;;;;;2.08;1.10;;;;;;;;;;5091588;28;20381;-70
2023/11/23 00:33:44;;;;;;;1.90;0.90;;;;;;;;;;5091643;28;20036;-69
2023/11/23 00:36:48;;;;;;;5.40;1.23;;;;;;;;;;5078547;28;20048;-69
2023/11/23 00:39:53;;;;;;;3.08;1.13;;;;;;;;;;5091634;28;20032;-69
2023/11/23 00:42:57;;;;;;;2.05;0.70;;;;;;;;;;5091513;28;20040;-69
2023/11/23 00:46:05;;;;;;;1.45;0.65;;;;;;;;;;5078917;28;20036;-69
2023/11/23 00:49:09;;;;;;;2.58;0.75;;;;;;;;;;5091303;28;20373;-69
2023/11/23 00:52:14;;;;;;;1.00;0.70;;;;;;;;;;5078957;28;20479;-69
2023/11/23 00:55:20;;;;;;;2.72;0.60;;;;;;;;;;5091363;28;20040;-70
2023/11/23 00:58:25;;;;;;;1.38;0.65;;;;;;;;;;5079116;28;20040;-69
2023/11/23 01:01:29;;;;;;;1.95;0.50;;;;;;;;;;5091277;28;20032;-70
2023/11/23 01:04:37;;;;;;;1.80;0.77;;;;;;;;;;5091133;28;20040;-70
2023/11/23 01:07:42;;;;;;;0.93;0.60;;;;;;;;;;5091232;28;20556;-68
2023/11/23 01:10:46;;;;;;;1.73;0.57;;;;;;;;;;5079271;28;20467;-69
2023/11/23 01:13:51;;;;;;;2.38;0.60;;;;;;;;;;5091738;28;20040;-69
2023/11/23 01:16:56;;;;;;;1.83;0.57;;;;;;;;;;5078255;28;20040;-70
2023/11/23 01:20:00;;;;;;;0.77;0.65;;;;;;;;;;5078889;28;20036;-69
2023/11/23 01:23:04;;;;;;;0.80;0.50;;;;;;;;;;5090848;28;20032;-69
2023/11/23 01:26:08;;;;;;;0.50;0.40;;;;;;;;;;5090707;28;20036;-69
2023/11/23 01:29:13;;;;;;;0.52;0.52;;;;;;;;;;5091383;28;20048;-70
2023/11/23 01:32:18;;;;;;;0.50;0.50;;;;;;;;;;5082404;28;20036;-69
2023/11/23 01:35:22;;;;;;;0.57;0.50;;;;;;;;;;5094504;28;20491;-69
2023/11/23 01:38:29;;;;;;;0.90;0.43;;;;;;;;;;5094680;28;20032;-69
2023/11/23 01:41:33;;;;;;;0.80;0.50;;;;;;;;;;5082088;28;20040;-70
2023/11/23 01:44:37;;;;;;;1.75;0.30;;;;;;;;;;5094221;28;20475;-70
2023/11/23 01:47:46;;;;;;;1.75;0.30;;;;;;;;;;5094374;28;20044;-69
2023/11/23 01:50:52;;;;;;;0.55;0.30;;;;;;;;;;5094395;28;20040;-70
2023/11/23 01:53:58;;;;;;;0.60;0.40;;;;;;;;;;5094290;28;20032;-70
2023/11/23 01:57:03;;;;;;;0.82;0.40;;;;;;;;;;5093944;28;20040;-70
2023/11/23 02:00:08;;;;;;;0.65;0.55;;;;;;;;;;5094359;28;20036;-70
2023/11/23 02:03:19;;;;;;;0.80;0.40;;;;;;;;;;5094030;28;20040;-70
2023/11/23 02:06:23;;;;;;;0.68;0.40;;;;;;;;;;5081373;28;20483;-69
2023/11/23 02:09:29;;;;;;;2.67;0.70;;;;;;;;;;5093863;28;20056;-70
2023/11/23 02:12:33;;;;;;;1.15;0.60;;;;;;;;;;5094159;28;20040;-69
2023/11/23 02:15:39;;;;;;;1.30;0.50;;;;;;;;;;5081434;28;20373;-69
2023/11/23 02:18:43;;;;;;;1.35;0.60;;;;;;;;;;5094059;28;20040;-69
2023/11/23 02:21:49;;;;;;;4.68;0.85;;;;;;;;;;5093573;28;20361;-69
2023/11/23 02:24:53;;;;;;;1.00;0.90;;;;;;;;;;5093676;28;20040;-69
2023/11/23 02:27:57;;;;;;;1.38;0.70;;;;;;;;;;5093336;28;20384;-71
2023/11/23 02:31:02;;;;;;;3.75;0.98;;;;;;;;;;5069701;28;20036;-70
2023/11/23 02:34:06;;;;;;;3.95;1.10;;;;;;;;;;5093627;28;20028;-68
2023/11/23 02:37:10;;;;;;;3.28;1.08;;;;;;;;;;5093204;28;20040;-70
2023/11/23 02:40:15;;;;;;;3.00;0.80;;;;;;;;;;5080882;28;20032;-69
2023/11/23 02:43:19;;;;;;;2.15;0.90;;;;;;;;;;5081078;28;20040;-70
2023/11/23 02:46:23;;;;;;;0.90;0.50;;;;;;;;;;5080795;28;20028;-69
2023/11/23 02:49:28;;;;;;;1.63;0.65;;;;;;;;;;5093107;28;20040;-70
2023/11/23 02:52:32;;;;;;;0.70;0.50;;;;;;;;;;5080401;28;20372;-69
2023/11/23 02:55:37;;;;;;;1.25;0.55;;;;;;;;;;5092969;28;20044;-68
2023/11/23 02:58:41;;;;;;;1.88;0.57;;;;;;;;;;5093064;28;20044;-70
2023/11/23 03:01:46;;;;;;;3.05;0.73;;;;;;;;;;5092991;28;20373;-70
2023/11/23 03:04:50;;;;;;;1.13;0.70;;;;;;;;;;5092918;28;20036;-69
2023/11/23 03:07:55;;;;;;;0.50;0.50;;;;;;;;;;5092743;28;20036;-70
2023/11/23 03:10:59;;;;;;;1.98;0.70;;;;;;;;;;5080539;28;20040;-69
2023/11/23 03:14:03;;;;;;;2.50;0.80;;;;;;;;;;5080709;28;20028;-69
2023/11/23 03:17:08;;;;;;;5.00;1.00;;;;;;;;;;5092503;28;20487;-68
2023/11/23 03:20:12;;;;;;;3.58;1.02;;;;;;;;;;5092537;28;20031;-69
2023/11/23 03:23:16;;;;;;;4.35;1.00;;;;;;;;;;5092872;28;20032;-69
2023/11/23 03:26:21;;;;;;;4.30;1.10;;;;;;;;;;5079832;28;20040;-69
2023/11/23 03:29:26;;;;;;;3.08;1.02;;;;;;;;;;5079845;28;20032;-70
2023/11/23 03:32:32;;;;;;;3.92;1.02;;;;;;;;;;5092184;28;20047;-70
2023/11/23 03:35:36;;;;;;;3.65;0.93;;;;;;;;;;5079685;28;20036;-70
2023/11/23 03:38:40;;;;;;;2.50;0.88;;;;;;;;;;5092118;28;20039;-68
2023/11/23 03:41:47;;;;;;;2.90;0.65;;;;;;;;;;5079966;28;20044;-69
2023/11/23 03:44:51;;;;;;;2.50;0.68;;;;;;;;;;5079503;28;20503;-69
2023/11/23 03:47:56;;;;;;;4.30;0.73;;;;;;;;;;5079239;28;20515;-68
2023/11/23 03:51:00;;;;;;;1.55;0.60;;;;;;;;;;5091960;28;20384;-69
2023/11/23 03:54:04;;;;;;;1.10;0.50;;;;;;;;;;5091948;28;20036;-69
2023/11/23 03:57:09;;;;;;;0.88;0.40;;;;;;;;;;5091722;28;20048;-69
2023/11/23 04:00:13;;;;;;;1.42;0.40;;;;;;;;;;5092018;28;20032;-69
2023/11/23 04:03:18;;;;;;;0.40;0.40;;;;;;;;;;5092149;28;20040;-70
2023/11/23 04:06:22;;;;;;;3.50;0.65;;;;;;;;;;5092050;28;20036;-70
2023/11/23 04:09:26;;;;;;;0.82;0.40;;;;;;;;;;5091677;28;20047;-70
2023/11/23 04:12:30;;;;;;;0.65;0.30;;;;;;;;;;5091641;28;20044;-69
2023/11/23 04:15:34;;;;;;;1.05;0.40;;;;;;;;;;5091597;28;20103;-68
2023/11/23 04:18:41;;;;;;;2.78;0.50;;;;;;;;;;5091683;28;20040;-69
2023/11/23 04:21:46;;;;;;;0.30;0.30;;;;;;;;;;5091277;28;20036;-69
2023/11/23 04:24:50;;;;;;;0.82;0.47;;;;;;;;;;5078846;28;20368;-70
2023/11/23 04:27:54;;;;;;;0.77;0.30;;;;;;;;;;5091191;28;20036;-69
2023/11/23 04:30:59;;;;;;;0.90;0.38;;;;;;;;;;5091617;28;20040;-69
2023/11/23 04:34:03;;;;;;;0.40;0.40;;;;;;;;;;5091573;28;20039;-69
2023/11/23 04:37:07;;;;;;;0.93;0.40;;;;;;;;;;5091325;28;20048;-70
2023/11/23 04:40:12;;;;;;;2.05;0.47;;;;;;;;;;5091581;28;20039;-69
2023/11/23 04:43:19;;;;;;;3.22;0.80;;;;;;;;;;5091504;28;20035;-69
2023/11/23 04:46:23;;;;;;;1.42;0.60;;;;;;;;;;5091006;28;20040;-70
2023/11/23 04:49:27;;;;;;;0.95;0.50;;;;;;;;;;5091153;28;20032;-69
2023/11/23 04:52:32;;;;;;;2.63;0.50;;;;;;;;;;5091032;28;20040;-69
2023/11/23 04:55:38;;;;;;;0.98;0.50;;;;;;;;;;5090876;28;20476;-69
2023/11/23 04:58:42;;;;;;;1.05;0.57;;;;;;;;;;5091162;28;20573;-68
2023/11/23 05:01:46;;;;;;;0.45;0.40;;;;;;;;;;5091156;28;20032;-70
2023/11/23 05:04:51;;;;;;;2.47;0.63;;;;;;;;;;5092618;28;20040;-69
2023/11/23 05:07:55;;;;;;;2.75;0.50;;;;;;;;;;5094720;28;20515;-69
2023/11/23 05:11:00;;;;;;;0.82;0.50;;;;;;;;;;5095225;28;20368;-69
2023/11/23 05:14:07;;;;;;;1.90;0.80;;;15.80;99.90;;;;;;5094936;28;20369;-69
2023/11/23 05:17:11;;;;;;;1.33;0.70;;;;;;;;;;5094740;28;20055;-70
2023/11/23 05:20:16;;;;;;;5.07;1.05;;;;;;;;;;5094738;28;20036;-69
2023/11/23 05:23:20;;;;;;;1.20;0.77;;;;;;;;;;5095019;28;20370;-69
2023/11/23 05:26:25;;;;;;;1.38;0.60;;;;;;;;;;5094587;28;20475;-70
2023/11/23 05:29:29;;;;;;;1.92;0.93;;;;;;;;;;5082346;28;20036;-68
2023/11/23 05:32:34;;;;;;;1.80;0.70;;;;;;;;;;5094808;28;20044;-69
2023/11/23 05:35:38;;;;;;;3.72;1.10;;;;;;;;;;5094611;28;20040;-70
2023/11/23 05:38:42;;;;;;;3.50;0.80;;;;;;;;;;5094915;28;20044;-70
2023/11/23 05:41:47;;;;;;;2.20;0.82;;;;;;;;;;5095110;28;20373;-71
2023/11/23 05:44:51;;;;;;;3.42;0.90;;;;;;;;;;5082005;28;20040;-70
2023/11/23 05:47:56;;;;;;;2.35;0.70;;;;;;;;;;5094449;28;20036;-70
2023/11/23 05:51:00;;;;;;;3.50;0.85;;;;;;;;;;5094825;28;20039;-69
2023/11/23 05:54:05;;;;;;;3.05;0.50;;;;;;;;;;5095404;28;20044;-70
2023/11/23 05:57:09;;;;;;;1.92;0.70;;;;;;;;;;5094924;28;20484;-70
2023/11/23 06:00:14;;;;;;;2.25;0.60;;;;;;;;;;5082187;28;20036;-68
2023/11/23 06:03:18;;;;;;;1.13;0.60;;;;;;;;;;5081988;28;20032;-70
2023/11/23 06:06:23;;;;;;;1.58;0.47;;;;;;;;;;5094039;28;20028;-69
2023/11/23 06:09:27;;;;;;;1.50;0.70;;;;;;;;;;5094166;28;20048;-70
2023/11/23 06:12:32;;;;;;;1.65;0.80;;;;;;;;;;5094360;28;20032;-70
2023/11/23 06:15:36;;;;;;;1.92;0.82;;;;;;;;;;5093369;28;20036;-70
2023/11/23 06:18:41;;;;;;;2.75;0.60;;;;;;;;;;5081794;28;20634;-69
2023/11/23 06:21:45;;;;;;;1.02;0.55;;;;;;;;;;5093876;28;20040;-70
2023/11/23 06:24:49;;;;;;;3.35;1.63;;;;;;;;;;5094061;28;20032;-70
2023/11/23 06:27:54;;;;;;;2.95;1.90;;;;;;;;;;5094244;28;20028;-70
2023/11/23 06:30:58;;;;;;;1.88;0.60;;;;;;;;;;5093871;28;20032;-70
2023/11/23 06:34:02;;;;;;;1.80;0.82;;;;;;;;;;5093784;28;20040;-68
2023/11/23 06:37:06;;;;;;;1.10;0.90;;;;;;;;;;5093325;28;20388;-60
2023/11/23 06:40:11;;;;;;;1.60;0.60;;;;;;;;;;5093150;28;20499;-61
2023/11/23 06:43:16;;;;;;;0.60;0.55;;;;;;;;;;5080563;28;20036;-61
2023/11/23 06:46:21;;;;;;;1.33;0.63;;;;;;;;;;5093009;28;20031;-60
2023/11/23 06:49:25;;;;;;;2.17;0.50;;;;;;;;;;5092812;28;20044;-60
2023/11/23 06:52:29;;;;;;;2.08;0.70;;;;;;;;;;5093021;28;20361;-59
2023/11/23 06:55:34;;;;;;;2.75;1.52;;;;;;;;;;5092853;28;20044;-61
2023/11/23 06:58:48;;;;;;;0.30;0.30;;;16.30;99.90;;;;;;5080723;28;20052;-59
2023/11/23 07:01:53;;;;;;;12.45;9.30;;;;;;;;;;5092908;28;20617;-59
2023/11/23 07:04:57;;;;;;;2.30;1.05;;;;;;;;;;5092680;28;20040;-60
2023/11/23 07:08:01;;;;;;;1.10;0.93;;;;;;;;;;5092266;28;20287;-60
2023/11/23 07:11:06;;;;;;;3.97;0.30;;;;;;;;;;5092623;28;20039;-60
2023/11/23 07:14:10;;;;;;;0.32;0.30;;;;;;;;;;5080137;28;20553;-61
2023/11/23 07:17:15;;;;;;;0.50;0.30;;;;;;;;;;5092141;28;20048;-61
2023/11/23 07:20:19;;;;;;;2.10;0.40;;;;;;;;;;5092471;28;20602;-61
2023/11/23 07:23:23;;;;;;;0.30;0.30;;;;;;;;;;5092218;28;20036;-62
2023/11/23 07:26:30;;;;;;;0.80;0.30;;;;;;;;;;5092315;28;20044;-62
2023/11/23 07:29:35;;;;;;;1.52;0.30;;;;;;;;;;5092550;28;20353;-61
2023/11/23 07:32:39;;;;;;;1.85;0.30;;;;;;;;;;5092301;28;20032;-61
2023/11/23 07:35:48;;;;;;;9.00;1.30;;;;;;;;;;5092003;28;20036;-62
2023/11/23 07:38:53;;;;;;;0.20;0.20;;;;;;;;;;5092091;28;20376;-62
2023/11/23 07:41:57;;;;;;;1.65;0.20;;;;;;;;;;5092153;28;20032;-61
2023/11/23 07:45:02;;;;;;;0.80;0.43;;;;;;;;;;5092146;28;20052;-61
2023/11/23 07:48:13;;;;;;;1.23;0.60;;;;;;;;;;5091801;28;20032;-62
2023/11/23 07:51:18;;;;;;;1.90;0.30;;;;;;;;;;5067925;28;20043;-61
2023/11/23 07:54:22;;;;;;;0.40;0.35;;;;;;;;;;5091944;28;20036;-63
2023/11/23 07:57:29;;;;;;;4.25;0.50;;;;;;;;;;5078995;28;20052;-60
2023/11/23 08:00:37;;;;;;;0.68;0.40;;;;;;;;;;5091633;28;20036;-61
2023/11/23 08:03:42;;;;;;;0.98;0.50;;;;;;;;;;5091459;28;20043;-60
2023/11/23 08:06:46;;;;;;;0.80;0.30;;;;;;;;;;5079240;28;20040;-62
2023/11/23 08:09:51;;;;;;;2.67;0.40;;;;;;;;;;5091631;28;20047;-61
2023/11/23 08:12:58;;;;;;;0.82;0.50;;;;;;;;;;5091867;28;20028;-62
2023/11/23 08:16:04;;;;;;;1.48;0.40;;;;;;;;;;5090951;28;20048;-60
2023/11/23 08:19:08;;;;;;;1.58;0.40;;;;;;;;;;5091059;28;20375;-62
2023/11/23 08:22:12;;;;;;;1.63;0.60;;;;;;;;;;5091409;28;20036;-64
2023/11/23 08:25:19;;;;;;;0.65;0.32;;;;;;;;;;5091518;28;20039;-61
2023/11/23 08:28:23;;;;;;;8.93;0.95;;;;;;;;;;5091329;28;20032;-65
2023/11/23 08:31:28;;;;;;;2.50;0.40;;;;;;;;;;5091427;28;20104;-66
2023/11/23 08:34:32;;;;;;;3.40;0.95;;;;;;;;;;5078783;28;20043;-61
2023/11/23 08:37:37;;;;;;;3.88;0.50;;;;;;;;;;5078946;28;20051;-66
2023/11/23 08:40:41;;;;;;;4.30;0.40;;;;;;;;;;5090086;28;20028;-67
2023/11/23 08:43:51;;;;;;;2.05;0.60;;;;;;;;;;5090930;28;20061;-63
2023/11/23 08:46:57;;;;;;;32.40;2.25;;;;;;;;;;5091322;28;20036;-62
2023/11/23 08:50:01;;;;;;;4.45;0.70;;;;;;;;;;5091040;28;20335;-63
2023/11/23 08:53:06;;;;;;;4.63;0.50;;;;;;;;;;5091224;28;20040;-63
2023/11/23 08:56:10;;;;;;;1.52;0.52;;;;;;;;;;5091236;28;20040;-62
2023/11/23 08:59:15;;;;;;;0.50;0.50;;;;;;;;;;5091016;28;20048;-61
2023/11/23 09:02:19;;;;;;;0.35;0.30;;;;;;;;;;5090823;28;20468;-63
2023/11/23 09:05:23;;;;;;;0.88;0.40;;;;;;;;;;5090795;28;20040;-62
2023/11/23 09:08:28;;;;;;;4.22;0.68;;;;;;;;;;5090758;28;20056;-62
2023/11/23 09:11:32;;;;;;;2.17;0.50;;;;;;;;;;5078334;28;20389;-62
2023/11/23 09:14:37;;;;;;;3.55;0.38;;;;;;;;;;5090647;28;20381;-62
2023/11/23 09:17:41;;;;;;;1.52;0.40;;;;;;;;;;5078012;28;20048;-63
2023/11/23 09:20:47;;;;;;;2.75;0.40;;;;;;;;;;5090899;28;20040;-70
2023/11/23 09:23:53;;;;;;;0.85;0.30;;;;;;;;;;5090542;28;20036;-62
2023/11/23 09:26:58;;;;;;;1.38;0.57;;;;;;;;;;5077868;28;20058;-63
2023/11/23 09:30:03;;;;;;;0.70;0.50;;;;;;;;;;5090859;28;20051;-62
2023/11/23 09:33:09;;;;;;;4.97;0.50;;;;;;;;;;5090684;28;20032;-62
2023/11/23 09:36:16;;;;;;;1.25;0.50;;;;;;;;;;5090212;28;20032;-63
2023/11/23 09:39:20;;;;;;;1.75;0.40;;;;;;;;;;5090333;28;20381;-62
2023/11/23 09:42:28;;;;;;;1.02;0.40;;;;;;;;;;5090239;28;20036;-60
2023/11/23 09:45:34;;;;;;;6.85;0.60;;;;;;;;;;5090731;28;20032;-61
2023/11/23 09:48:40;;;;;;;0.40;0.40;;;;;;;;;;5090549;28;20032;-63
2023/11/23 09:51:45;;;;;;;5.90;1.25;;;;;;;;;;5092977;28;20032;-61
2023/11/23 09:54:49;;;;;;;0.73;0.47;;;;;;;;;;5094011;28;20040;-60
2023/11/23 09:57:53;;;;;;;2.05;0.68;;;;;;;;;;5093971;28;20056;-62
2023/11/23 10:01:01;;;;;;;0.93;0.50;;;;;;;;;;5093825;28;20044;-63
2023/11/23 10:04:06;;;;;;;1.30;0.50;;;;;;;;;;5093651;28;20044;-62
2023/11/23 10:07:11;;;;;;;1.17;0.40;;;;;;;;;;5094079;28;20036;-62
2023/11/23 10:10:16;;;;;;;0.90;0.50;;;;;;;;;;5081612;28;20377;-61
2023/11/23 10:13:20;;;;;;;1.35;0.60;;;;;;;;;;5093767;28;20036;-61
2023/11/23 10:16:25;;;;;;;2.92;0.50;;;;;;;;;;5093493;28;20040;-62
2023/11/23 10:19:29;;;;;;;0.60;0.50;;;;;;;;;;5093507;28;20511;-63
2023/11/23 10:22:33;;;;;;;1.80;0.40;;;;;;;;;;5080917;28;20036;-63
2023/11/23 10:25:41;;;;;;;2.55;0.45;;;16.90;97.30;;;;;;5093463;28;20039;-61
2023/11/23 10:28:46;;;;;;;2.53;0.40;;;;;;;;;;5093402;28;20040;-61
2023/11/23 10:31:51;;;;;;;2.65;0.57;;;;;;;;;;5093474;28;20040;-62
2023/11/23 10:34:56;;;;;;;0.63;0.30;;;;;;;;;;5080916;28;20032;-62
2023/11/23 10:38:01;;;;;;;0.65;0.40;;;;;;;;;;5093100;28;20483;-61
2023/11/23 10:41:06;;;;;;;2.40;0.40;;;;;;;;;;5093268;28;20032;-62
2023/11/23 10:44:10;;;;;;;5.95;0.47;;;;;;;;;;5080701;28;20036;-61
2023/11/23 10:47:15;;;;;;;2.45;0.50;;;;;;;;;;5093083;28;20028;-61
2023/11/23 10:50:20;;;;;;;1.33;0.68;;;;;;;;;;5092792;28;20036;-61
2023/11/23 10:53:26;;;;;;;0.95;0.50;;;;;;;;;;5093077;28;20032;-60
2023/11/23 10:56:32;;;;;;;2.65;0.52;;;;;;;;;;5093366;28;20535;-62
2023/11/23 10:59:37;;;;;;;0.85;0.40;;;;;;;;;;5080599;28;20044;-62
2023/11/23 11:02:43;;;;;;;1.17;0.60;;;15.40;95.00;;;;;;5092382;28;20036;-62
2023/11/23 11:05:49;;;;;;;2.13;0.50;;;;;;;;;;5092804;28;20063;-62
2023/11/23 11:08:53;;;;;;;2.33;0.70;;;;;;;;;;5093156;28;20044;-62
2023/11/23 11:12:00;;;;;;;3.22;0.70;;;;;;;;;;5093109;28;20040;-63
2023/11/23 11:15:06;;;;;;;12.57;0.82;;;;;;;;;;5093011;28;20036;-62
2023/11/23 11:18:11;;;;;;;4.05;0.70;;;;;;;;;;5068282;28;20051;-60
2023/11/23 11:21:18;;;;;;;1.42;0.60;;;18.60;96.20;;;;;;5092742;28;20044;-62
2023/11/23 11:24:25;;;;;;;3.60;0.70;;;;;;;;;;5080240;28;20047;-63
2023/11/23 11:27:30;;;;;;;3.08;0.60;;;;;;;;;;5092620;28;20468;-61
2023/11/23 11:30:35;;;;;;;1.95;0.60;;;;;;;;;;5092469;28;20088;-62
2023/11/23 11:33:38;;;;;;;2.20;0.50;;;;;;;;;;5092119;28;20032;-61
2023/11/23 11:36:43;;;;;;;2.65;0.70;;;;;;;;;;5092017;28;20039;-61
2023/11/23 11:39:48;;;;;;;2.10;0.60;;;;;;;;;;5092059;28;20036;-61
2023/11/23 11:42:53;;;;;;;0.77;0.40;;;;;;;;;;5092290;28;20036;-61
2023/11/23 11:45:57;;;;;;;2.28;0.70;;;;;;;;;;5079281;28;20044;-60
2023/11/23 11:49:02;;;;;;;2.10;0.80;;;;;;;;;;5091926;28;20032;-60
2023/11/23 11:52:07;;;;;;;0.60;0.45;;;;;;;;;;5079923;28;20484;-59
2023/11/23 11:55:11;;;;;;;1.48;0.50;;;;;;;;;;5091528;28;20043;-63
2023/11/23 11:58:16;;;;;;;4.22;0.60;;;;;;;;;;5091515;28;20052;-62
2023/11/23 12:01:20;;;;;;;6.40;0.60;;;;;;;;;;5089913;28;20432;-60
2023/11/23 12:04:25;;;;;;;0.70;0.40;;;;;;;;;;5077253;28;20040;-60
2023/11/23 12:07:29;;;;;;;2.50;0.47;;;;;;;;;;5089753;28;20032;-60
2023/11/23 12:10:37;;;;;;;2.75;0.50;;;;;;;;;;5090400;28;20523;-60
2023/11/23 12:13:42;;;;;;;4.25;0.60;;;;;;;;;;5090164;28;20177;-61
2023/11/23 12:16:46;;;;;;;2.70;0.60;;;;;;;;;;5091273;28;20040;-62
2023/11/23 12:19:54;;;;;;;2.63;0.50;;;;;;;;;;5091197;28;20051;-62
2023/11/23 12:22:59;;;;;;;0.98;0.32;;;;;;;;;;5089458;28;20182;-60
2023/11/23 12:26:04;;;;;;;2.35;0.63;;;;;;;;;;5088957;28;20044;-61
2023/11/23 12:29:08;;;;;;;1.75;0.40;;;;;;;;;;5089403;28;20040;-61
2023/11/23 12:32:13;;;;;;;4.10;0.40;;;;;;;;;;5089960;28;20032;-60
2023/11/23 12:35:18;;;;;;;4.30;1.00;;;;;;;;;;5090169;28;20044;-61
2023/11/23 12:38:23;;;;;;;0.77;0.52;;;;;;;;;;5091001;28;20048;-62
2023/11/23 12:41:27;;;;;;;10.55;0.80;;;;;;;;;;5091365;28;20602;-62
2023/11/23 12:44:35;;;;;;;3.72;0.60;;;;;;;;;;5090847;28;20044;-62
2023/11/23 12:47:40;;;;;;;4.20;0.60;;;;;;;;;;5090960;28;20024;-61
2023/11/23 12:50:44;;;;;;;12.77;1.75;;;;;;;;;;5078191;28;20445;-62
2023/11/23 12:53:48;;;;;;;2.45;0.75;;;;;;;;;;5091229;28;20396;-61
2023/11/23 12:56:53;;;;;;;1.73;0.80;;;;;;;;;;5090469;28;20051;-60
2023/11/23 13:00:00;;;;;;;4.85;0.82;;;;;;;;;;5090702;28;20036;-60
2023/11/23 13:03:05;;;;;;;3.40;0.47;;;;;;;;;;5090731;28;20032;-60
2023/11/23 13:06:09;;;;;;;9.00;0.90;;;;;;;;;;5090762;28;20040;-61
2023/11/23 13:09:18;;;;;;;4.38;0.70;;;;;;;;;;5078225;28;20040;-62
2023/11/23 13:12:24;;;;;;;3.53;0.93;;;;;;;;;;5088707;28;20044;-61
2023/11/23 13:15:28;;;;;;;2.60;0.40;;;;;;;;;;5088689;28;20032;-60
2023/11/23 13:18:35;;;;;;;2.15;0.60;;;;;;;;;;5088586;28;20056;-62
2023/11/23 13:21:41;;;;;;;2.10;0.55;;;;;;;;;;5089498;28;20032;-62
2023/11/23 13:24:47;;;;;;;1.50;0.50;;;;;;;;;;5090688;28;20368;-63
2023/11/23 13:27:56;;;;;;;1.15;0.50;;;;;;;;;;5094416;28;20032;-63
2023/11/23 13:31:00;;;;;;;1.98;0.55;;;;;;;;;;5094574;28;20044;-61
2023/11/23 13:34:06;;;;;;;3.03;0.68;;;;;;;;;;5094585;28;20476;-62
2023/11/23 13:37:10;;;;;;;1.88;0.85;;;;;;;;;;5093997;28;20053;-61
2023/11/23 13:40:15;;;;;;;1.23;0.60;;;;;;;;;;5094569;28;20397;-62
2023/11/23 13:43:20;;;;;;;2.53;0.73;;;;;;;;;;5094535;28;20036;-63
2023/11/23 13:46:25;;;;;;;4.25;0.70;;;;;;;;;;5082234;28;20036;-61
2023/11/23 13:49:30;;;;;;;3.03;1.00;;;;;;;;;;5094184;28;20361;-64
2023/11/23 13:52:37;;;;;;;3.22;0.70;;;;;;;;;;5070245;28;20040;-62
2023/11/23 13:55:41;;;;;;;3.97;0.70;;;;;;;;;;5093876;28;20040;-62
2023/11/23 13:58:45;;;;;;;1.20;0.90;;;;;;;;;;5093965;28;20047;-63
2023/11/23 14:01:50;;;;;;;4.88;0.80;;;;;;;;;;5094007;28;20036;-61
2023/11/23 14:04:55;;;;;;;1.70;0.55;;;;;;;;;;5093847;28;20044;-60
2023/11/23 14:07:59;;;;;;;2.78;0.88;;;;;;;;;;5093582;28;20048;-61
2023/11/23 14:11:03;;;;;;;3.05;0.80;;;;;;;;;;5093989;28;20044;-62
2023/11/23 14:14:08;;;;;;;0.50;0.50;;;;;;;;;;5081146;28;20036;-62
2023/11/23 14:17:13;;;;;;;1.20;0.50;;;;;;;;;;5093341;28;20040;-62
2023/11/23 14:20:17;;;;;;;1.17;0.50;;;;;;;;;;5093367;28;20044;-62
2023/11/23 14:23:22;;;;;;;1.40;0.60;;;;;;;;;;5093729;28;20032;-63
2023/11/23 14:26:29;;;;;;;0.80;0.52;;;;;;;;;;5093624;28;20036;-61
2023/11/23 14:29:33;;;;;;;3.40;0.63;;;;;;;;;;5093154;28;20048;-63
2023/11/23 14:32:37;;;;;;;2.63;0.93;;;;;;;;;;5093218;28;20040;-63
2023/11/23 14:35:42;;;;;;;1.25;0.57;;;;;;;;;;5080955;28;20032;-63
2023/11/23 14:38:46;;;;;;;1.42;0.60;;;;;;;;;;5092325;28;20368;-62
2023/11/23 14:41:52;;;;;;;1.35;0.90;;;;;;;;;;5092923;28;20028;-62
2023/11/23 14:44:56;;;;;;;2.13;0.70;;;;;;;;;;5093112;28;20364;-62
2023/11/23 14:48:03;;;;;;;3.22;0.85;;;;;;;;;;5092895;28;20028;-62
2023/11/23 14:51:07;;;;;;;1.58;0.95;;;;;;;;;;5093204;28;20044;-64
2023/11/23 14:54:11;;;;;;;5.00;1.10;;;;;;;;;;5092643;28;20032;-63
2023/11/23 14:57:16;;;;;;;1.80;1.00;;;;;;;;;;5092482;28;20492;-62
2023/11/23 15:00:23;;;;;;;7.88;1.10;;;;;;;;;;5092344;28;20377;-61
2023/11/23 15:03:28;;;;;;;5.60;1.35;;;;;;;;;;5092298;28;20040;-61
2023/11/23 15:06:33;;;;;;;4.70;2.10;;;;;;;;;;5092507;28;20036;-61
2023/11/23 15:09:37;;;;;;;4.53;1.27;;;;;;;;;;5092328;28;20043;-64
2023/11/23 15:12:49;;;;;;;3.70;1.10;;;;;;;;;;5092593;28;20044;-62
2023/11/23 15:15:53;;;;;;;2.78;1.10;;;;;;;;;;5092437;28;20036;-63
2023/11/23 15:18:57;;;;;;;2.20;1.10;;;;;;;;;;5092020;28;20051;-63
2023/11/23 15:22:05;;;;;;;4.20;1.02;;;;;;;;;;5080035;28;20036;-62
2023/11/23 15:25:11;;;;;;;3.85;1.02;;;;;;;;;;5092221;28;20040;-62
2023/11/23 15:28:15;;;;;;;1.77;1.20;;;;;;;;;;5092332;28;20028;-63
2023/11/23 15:31:19;;;;;;;5.97;2.80;;;;;;;;;;5092070;28;20040;-61
2023/11/23 15:34:24;;;;;;;3.67;1.70;;;;;;;;;;5079407;28;20483;-62
2023/11/23 15:37:28;;;;;;;4.90;1.60;;;;;;;;;;5092121;28;20376;-62
2023/11/23 15:40:32;;;;;;;1.83;1.13;;;;;;;;;;5092108;28;20048;-63
2023/11/23 15:43:38;;;;;;;8.68;1.70;;;;;;;;;;5091725;28;20032;-61
2023/11/23 15:46:42;;;;;;;5.35;2.35;;;;;;;;;;5091928;28;20039;-62
2023/11/23 15:49:47;;;;;;;4.28;2.10;;;;;;;;;;5091392;28;20036;-61
2023/11/23 15:52:54;;;;;;;4.43;1.92;;;;;;;;;;5091702;28;20040;-61
2023/11/23 15:55:58;;;;;;;4.95;1.73;;;;;;;;;;5091411;28;20032;-61
2023/11/23 15:59:09;;;;;;;4.22;1.77;;;;;;;;;;5091173;28;20048;-61
2023/11/23 16:02:13;;;;;;;3.58;2.05;;;;;;;;;;5091419;28;20036;-61
2023/11/23 16:05:24;;;;;;;5.80;2.63;;;;;;;;;;5091106;28;20044;-61
2023/11/23 16:08:29;;;;;;;3.15;1.90;;;;;;;;;;5091145;28;20044;-60
2023/11/23 16:11:33;;;;;;;4.30;2.33;;;;;;;;;;5091275;28;20040;-60
2023/11/23 16:14:37;;;;;;;8.10;2.63;;;;;;;;;;5078570;28;20032;-61
2023/11/23 16:17:42;;;;;;;6.80;3.47;;;;;;;;;;5091192;28;20048;-61
2023/11/23 16:20:46;;;;;;;6.70;3.10;;;;;;;;;;5091419;28;20391;-61
2023/11/23 16:23:50;;;;;;;6.53;2.65;;;;;;;;;;5091037;28;20040;-61
2023/11/23 16:26:55;;;;;;;3.63;2.25;;;;;;;;;;5091139;28;20135;-61
2023/11/23 16:29:59;;;;;;;5.47;3.53;;;;;;;;;;5091225;28;20063;-60
2023/11/23 16:33:04;;;;;;;8.80;3.50;;;;;;;;;;5090971;28;20475;-61
2023/11/23 16:36:15;;;;;;;6.57;3.63;;;;;;;;;;5090890;28;20032;-60
2023/11/23 16:39:20;;;;;;;4.93;2.30;;;;;;;;;;5091216;28;20047;-60
2023/11/23 16:42:24;;;;;;;6.47;2.10;;;;;;;;;;5091032;28;20032;-62
2023/11/23 16:45:28;;;;;;;5.28;2.70;;;;;;;;;;5091064;28;20040;-61
2023/11/23 16:48:33;;;;;;;3.63;1.95;;;;;;;;;;5090690;28;20032;-60
2023/11/23 16:51:40;;;;;;;3.42;1.98;;;14.80;96.00;;;;;;5091100;28;20044;-60
2023/11/23 16:54:45;;;;;;;6.70;2.47;;;;;;;;;;5090797;28;20035;-60
2023/11/23 16:57:50;;;;;;;2.88;1.90;;;;;;;;;;5090471;28;20044;-60
2023/11/23 17:00:55;;;;;;;2.58;1.70;;;;;;;;;;5080051;28;20468;-61
2023/11/23 17:03:59;;;;;;;3.63;1.65;;;;;;;;;;5094776;28;20040;-60
2023/11/23 17:07:03;;;;;;;2.70;1.63;;;;;;;;;;5094615;28;20040;-61
2023/11/23 17:10:08;;;;;;;3.42;1.80;;;;;;;;;;5094937;28;20384;-61
2023/11/23 17:13:12;;;;;;;3.10;1.85;;;;;;;;;;5094862;28;20044;-62
2023/11/23 17:16:16;;;;;;;2.92;1.90;;;;;;;;;;5082452;28;20043;-60
2023/11/23 17:19:26;;;;;;;3.92;2.22;;;;;;;;;;5094991;28;20487;-60
2023/11/23 17:22:30;;;;;;;6.15;2.90;;;;;;;;;;5094874;28;20044;-61
2023/11/23 17:25:38;;;;;;;5.18;2.05;;;;;;;;;;5094254;28;20039;-61
2023/11/23 17:28:43;;;;;;;4.18;3.08;;;;;;;;;;5094758;28;20035;-60
2023/11/23 17:31:54;;;;;;;2.35;1.70;;;;;;;;;;5094527;28;20040;-61
2023/11/23 17:34:58;;;;;;;2.70;1.42;;;;;;;;;;5094443;28;20040;-61
2023/11/23 17:38:03;;;;;;;5.32;2.00;;;;;;;;;;5094511;28;20483;-62
2023/11/23 17:41:09;;;;;;;9.45;6.43;;;;;;;;;;5081844;28;20048;-62
2023/11/23 17:44:14;;;;;;;7.68;3.95;;;;;;;;;;5094056;28;20036;-62
2023/11/23 17:47:21;;;;;;;11.27;8.98;;;;;;;;;;5082285;28;20368;-64
2023/11/23 17:50:27;;;;;;;2.42;1.73;;;;;;;;;;5081890;28;20040;-62
2023/11/23 17:53:31;;;;;;;3.03;1.92;;;15.40;97.10;;;;;;5081804;28;20361;-61
2023/11/23 17:56:36;;;;;;;6.15;2.80;;;;;;;;;;5093967;28;20055;-63
2023/11/23 17:59:42;;;;;;;7.07;3.42;;;;;;;;;;5094280;28;20373;-62
2023/11/23 18:02:46;;;;;;;6.65;3.85;;;;;;;;;;5094061;28;20044;-62
2023/11/23 18:05:50;;;;;;;8.65;5.47;;;;;;;;;;5094209;28;20028;-75
2023/11/23 18:08:56;;;;;;;8.77;5.32;;;;;;;;;;5082278;28;20393;-75
2023/11/23 18:12:00;;;;;;;11.55;6.15;;;;;;;;;;5093842;28;20032;-75
2023/11/23 18:15:05;;;;;;;12.60;8.30;;;;;;;;;;5081618;28;20047;-74
2023/11/23 18:18:09;;;;;;;23.15;14.98;;;;;;;;;;5093962;28;20044;-75
2023/11/23 18:21:13;;;;;;;9.35;5.30;;;;;;;;;;5094265;28;20059;-75
2023/11/23 18:24:19;;;;;;;12.15;6.47;;;;;;;;;;5094695;28;20040;-75
2023/11/23 18:27:23;;;;;;;9.18;5.43;;;;;;;;;;5094319;28;20403;-75